createdAt,value
2017-09-04T00:00:10.352Z,0
2017-09-04T00:01:12.235Z,0
2017-09-04T00:02:14.115Z,0
2017-09-04T00:03:16.003Z,0
2017-09-04T00:04:17.832Z,0
2017-09-04T00:05:19.649Z,0
2017-09-04T00:06:21.537Z,0
2017-09-04T00:07:23.417Z,0
2017-09-04T00:08:25.300Z,0
2017-09-04T00:09:39.455Z,0
2017-09-04T00:10:41.337Z,0
2017-09-04T00:11:43.218Z,0
2017-09-04T00:12:45.108Z,0
2017-09-04T00:13:46.926Z,0
2017-09-04T00:14:48.744Z,0
2017-09-04T00:15:50.631Z,0
2017-09-04T00:16:52.508Z,0
2017-09-04T00:17:54.390Z,0
2017-09-04T00:19:08.543Z,0
2017-09-04T00:20:10.437Z,0
2017-09-04T00:21:12.327Z,0
2017-09-04T00:22:14.210Z,0
2017-09-04T00:23:16.029Z,0
2017-09-04T00:24:17.857Z,0
2017-09-04T00:25:19.738Z,0
2017-09-04T00:26:21.615Z,0
2017-09-04T00:27:23.493Z,0
2017-09-04T00:28:37.647Z,0
2017-09-04T00:29:39.528Z,0
2017-09-04T00:30:41.409Z,0
2017-09-04T00:31:43.290Z,0
2017-09-04T00:32:45.108Z,0
2017-09-04T00:33:46.927Z,0
2017-09-04T00:34:48.804Z,0
2017-09-04T00:35:50.652Z,0
2017-09-04T00:36:52.471Z,0
2017-09-04T00:38:06.662Z,0
2017-09-04T00:39:08.546Z,0
2017-09-04T00:40:10.442Z,0
2017-09-04T00:41:12.317Z,0
2017-09-04T00:42:14.134Z,0
2017-09-04T00:43:15.961Z,0
2017-09-04T00:44:17.854Z,0
2017-09-04T00:45:19.733Z,0
2017-09-04T00:46:21.626Z,0
2017-09-04T00:47:35.791Z,0
2017-09-04T00:48:37.684Z,0
2017-09-04T00:49:39.576Z,0
2017-09-04T00:50:41.468Z,0
2017-09-04T00:51:43.286Z,0
2017-09-04T00:52:45.101Z,0
2017-09-04T00:53:46.993Z,0
2017-09-04T00:54:48.872Z,0
2017-09-04T00:55:50.768Z,0
2017-09-04T00:57:04.901Z,0
2017-09-04T00:58:06.745Z,0
2017-09-04T00:59:08.636Z,0
2017-09-04T01:00:10.526Z,0
2017-09-04T01:01:12.415Z,0
2017-09-04T01:02:14.210Z,0
2017-09-04T01:03:16.040Z,0
2017-09-04T01:04:17.929Z,0
2017-09-04T01:05:19.808Z,0
2017-09-04T01:06:34.050Z,0
2017-09-04T01:07:35.925Z,0
2017-09-04T01:08:37.812Z,0
2017-09-04T01:09:39.693Z,0
2017-09-04T01:10:41.520Z,0
2017-09-04T01:11:43.348Z,0
2017-09-04T01:12:45.227Z,0
2017-09-04T01:13:47.115Z,0
2017-09-04T01:14:48.995Z,0
2017-09-04T01:16:03.148Z,0
2017-09-04T01:17:05.029Z,0
2017-09-04T01:18:06.911Z,0
2017-09-04T01:19:08.801Z,0
2017-09-04T01:20:10.631Z,0
2017-09-04T01:21:12.444Z,0
2017-09-04T01:22:14.324Z,0
2017-09-04T01:23:16.203Z,0
2017-09-04T01:24:18.085Z,0
2017-09-04T01:25:32.234Z,0
2017-09-04T01:26:34.123Z,0
2017-09-04T01:27:36.000Z,0
2017-09-04T01:28:37.889Z,0
2017-09-04T01:29:39.708Z,0
2017-09-04T01:30:41.525Z,0
2017-09-04T01:31:43.407Z,0
2017-09-04T01:32:45.285Z,0
2017-09-04T01:33:47.163Z,0
2017-09-04T01:35:01.313Z,0
2017-09-04T01:36:03.192Z,0
2017-09-04T01:37:05.072Z,0
2017-09-04T01:38:06.951Z,0
2017-09-04T01:39:08.768Z,0
2017-09-04T01:40:10.585Z,0
2017-09-04T01:41:12.462Z,0
2017-09-04T01:42:14.343Z,0
2017-09-04T01:43:16.219Z,0
2017-09-04T01:44:30.372Z,0
2017-09-04T01:45:32.262Z,0
2017-09-04T01:46:34.133Z,0
2017-09-04T01:47:36.020Z,0
2017-09-04T01:48:37.827Z,0
2017-09-04T01:49:39.642Z,0
2017-09-04T01:50:41.520Z,0
2017-09-04T01:51:43.401Z,0
2017-09-04T01:52:45.289Z,0
2017-09-04T01:53:59.441Z,0
2017-09-04T01:55:01.321Z,0
2017-09-04T01:56:03.202Z,0
2017-09-04T01:57:05.078Z,0
2017-09-04T01:58:06.895Z,0
2017-09-04T01:59:08.711Z,0
2017-09-04T02:00:10.588Z,0
2017-09-04T02:01:12.469Z,0
2017-09-04T02:02:14.343Z,0
2017-09-04T02:03:28.496Z,0
2017-09-04T02:04:30.385Z,0
2017-09-04T02:05:32.264Z,0
2017-09-04T02:06:34.139Z,0
2017-09-04T02:07:35.966Z,0
2017-09-04T02:08:37.784Z,0
2017-09-04T02:09:39.665Z,0
2017-09-04T02:10:41.544Z,0
2017-09-04T02:11:43.432Z,0
2017-09-04T02:12:57.583Z,0
2017-09-04T02:13:59.462Z,0
2017-09-04T02:15:01.345Z,0
2017-09-04T02:16:03.233Z,0
2017-09-04T02:17:05.051Z,0
2017-09-04T02:18:06.872Z,0
2017-09-04T02:19:08.753Z,0
2017-09-04T02:20:10.630Z,0
2017-09-04T02:21:12.519Z,0
2017-09-04T02:22:26.672Z,0
2017-09-04T02:23:28.563Z,0
2017-09-04T02:24:30.446Z,0
2017-09-04T02:25:32.323Z,0
2017-09-04T02:26:34.140Z,0
2017-09-04T02:27:35.956Z,0
2017-09-04T02:28:37.843Z,0
2017-09-04T02:29:39.723Z,0
2017-09-04T02:30:41.603Z,0
2017-09-04T02:31:55.764Z,0
2017-09-04T02:32:57.635Z,0
2017-09-04T02:33:59.516Z,0
2017-09-04T02:35:01.400Z,0
2017-09-04T02:36:03.213Z,0
2017-09-04T02:37:05.030Z,0
2017-09-04T02:38:06.905Z,0
2017-09-04T02:39:08.813Z,0
2017-09-04T02:40:10.685Z,0
2017-09-04T02:41:24.888Z,0
2017-09-04T02:42:26.765Z,0
2017-09-04T02:43:28.644Z,0
2017-09-04T02:44:30.518Z,0
2017-09-04T02:45:32.335Z,0
2017-09-04T02:46:34.154Z,0
2017-09-04T02:47:36.035Z,0
2017-09-04T02:48:37.913Z,0
2017-09-04T02:49:39.794Z,0
2017-09-04T02:50:53.944Z,0
2017-09-04T02:51:55.823Z,0
2017-09-04T02:52:57.707Z,0
2017-09-04T02:53:59.596Z,0
2017-09-04T02:55:01.413Z,0
2017-09-04T02:56:03.231Z,0
2017-09-04T02:57:05.110Z,0
2017-09-04T02:58:06.989Z,0
2017-09-04T02:59:08.882Z,0
2017-09-04T03:00:23.081Z,0
2017-09-04T03:01:24.958Z,0
2017-09-04T03:02:26.839Z,0
2017-09-04T03:03:28.720Z,0
2017-09-04T03:04:30.537Z,0
2017-09-04T03:05:32.354Z,0
2017-09-04T03:06:34.233Z,0
2017-09-04T03:07:36.122Z,0
2017-09-04T03:08:38.003Z,0
2017-09-04T03:09:52.154Z,0
2017-09-04T03:10:54.032Z,0
2017-09-04T03:11:55.918Z,0
2017-09-04T03:12:57.794Z,0
2017-09-04T03:13:59.610Z,0
2017-09-04T03:15:01.432Z,0
2017-09-04T03:16:03.305Z,0
2017-09-04T03:17:05.185Z,0
2017-09-04T03:18:07.063Z,0
2017-09-04T03:19:21.214Z,0
2017-09-04T03:20:23.094Z,0
2017-09-04T03:21:24.976Z,0
2017-09-04T03:22:26.856Z,0
2017-09-04T03:23:28.670Z,0
2017-09-04T03:24:30.487Z,0
2017-09-04T03:25:32.368Z,0
2017-09-04T03:26:34.248Z,0
2017-09-04T03:27:36.127Z,0
2017-09-04T03:28:50.288Z,0
2017-09-04T03:29:52.167Z,0
2017-09-04T03:30:54.052Z,0
2017-09-04T03:31:56.131Z,0
2017-09-04T03:32:57.949Z,0
2017-09-04T03:33:59.764Z,0
2017-09-04T03:35:01.642Z,0
2017-09-04T03:36:03.522Z,0
2017-09-04T03:37:05.414Z,0
2017-09-04T03:38:19.563Z,0
2017-09-04T03:39:21.451Z,0
2017-09-04T03:40:23.335Z,0
2017-09-04T03:41:25.211Z,0
2017-09-04T03:42:27.039Z,0
2017-09-04T03:43:28.854Z,0
2017-09-04T03:44:30.735Z,0
2017-09-04T03:45:32.618Z,0
2017-09-04T03:46:34.500Z,0
2017-09-04T03:47:48.648Z,0
2017-09-04T03:48:50.526Z,0
2017-09-04T03:49:52.411Z,4
2017-09-04T03:50:54.292Z,4
2017-09-04T03:51:56.106Z,0
2017-09-04T03:52:57.923Z,4
2017-09-04T03:53:59.802Z,4
2017-09-04T03:55:01.685Z,4
2017-09-04T03:56:03.561Z,8
2017-09-04T03:57:17.713Z,8
2017-09-04T03:58:19.606Z,12
2017-09-04T03:59:21.489Z,12
2017-09-04T04:00:23.370Z,16
2017-09-04T04:01:25.185Z,16
2017-09-04T04:02:27.001Z,20
2017-09-04T04:03:28.883Z,24
2017-09-04T04:04:30.763Z,28
2017-09-04T04:05:32.655Z,32
2017-09-04T04:06:46.805Z,40
2017-09-04T04:07:48.688Z,48
2017-09-04T04:08:50.574Z,56
2017-09-04T04:09:52.455Z,64
2017-09-04T04:10:54.274Z,76
2017-09-04T04:11:56.090Z,88
2017-09-04T04:12:57.975Z,100
2017-09-04T04:13:59.860Z,116
2017-09-04T04:15:01.705Z,128
2017-09-04T04:16:15.857Z,148
2017-09-04T04:17:17.739Z,164
2017-09-04T04:18:19.623Z,184
2017-09-04T04:19:21.513Z,204
2017-09-04T04:20:23.341Z,224
2017-09-04T04:21:25.161Z,248
2017-09-04T04:22:27.041Z,276
2017-09-04T04:23:28.933Z,304
2017-09-04T04:24:30.819Z,332
2017-09-04T04:25:44.968Z,368
2017-09-04T04:26:46.853Z,400
2017-09-04T04:27:48.738Z,436
2017-09-04T04:28:50.622Z,472
2017-09-04T04:29:52.442Z,512
2017-09-04T04:30:54.258Z,552
2017-09-04T04:31:56.145Z,596
2017-09-04T04:32:58.030Z,640
2017-09-04T04:33:59.920Z,684
2017-09-04T04:35:14.068Z,748
2017-09-04T04:36:15.952Z,796
2017-09-04T04:37:17.837Z,848
2017-09-04T04:38:19.718Z,900
2017-09-04T04:39:21.542Z,952
2017-09-04T04:40:23.362Z,1004
2017-09-04T04:41:25.245Z,1056
2017-09-04T04:42:27.131Z,1108
2017-09-04T04:43:29.017Z,1160
2017-09-04T04:44:43.176Z,1232
2017-09-04T04:45:45.061Z,1300
2017-09-04T04:46:46.944Z,1376
2017-09-04T04:47:48.827Z,1448
2017-09-04T04:48:50.659Z,1508
2017-09-04T04:49:52.479Z,1580
2017-09-04T04:50:54.363Z,1664
2017-09-04T04:51:56.249Z,1744
2017-09-04T04:52:58.135Z,1816
2017-09-04T04:54:12.293Z,1884
2017-09-04T04:55:14.185Z,1920
2017-09-04T04:56:16.274Z,1948
2017-09-04T04:57:18.158Z,1960
2017-09-04T04:58:19.981Z,2000
2017-09-04T04:59:21.800Z,2072
2017-09-04T05:00:23.696Z,2132
2017-09-04T05:01:25.543Z,2176
2017-09-04T05:02:27.366Z,2208
2017-09-04T05:03:41.558Z,2240
2017-09-04T05:04:43.442Z,2272
2017-09-04T05:05:45.331Z,2316
2017-09-04T05:06:47.216Z,2380
2017-09-04T05:07:49.050Z,2452
2017-09-04T05:08:50.873Z,2524
2017-09-04T05:09:52.759Z,2580
2017-09-04T05:10:54.644Z,2624
2017-09-04T05:11:56.529Z,2648
2017-09-04T05:13:10.686Z,2648
2017-09-04T05:14:12.570Z,2664
2017-09-04T05:15:14.461Z,2688
2017-09-04T05:16:16.346Z,2716
2017-09-04T05:17:18.182Z,2752
2017-09-04T05:18:20.021Z,2780
2017-09-04T05:19:21.910Z,2808
2017-09-04T05:20:23.798Z,2836
2017-09-04T05:21:25.683Z,2864
2017-09-04T05:22:39.850Z,2900
2017-09-04T05:23:41.728Z,2932
2017-09-04T05:24:43.616Z,2960
2017-09-04T05:25:45.498Z,2984
2017-09-04T05:26:47.329Z,3012
2017-09-04T05:27:49.150Z,3036
2017-09-04T05:28:51.034Z,3060
2017-09-04T05:29:52.920Z,3080
2017-09-04T05:30:54.804Z,3092
2017-09-04T05:32:08.971Z,3104
2017-09-04T05:33:10.857Z,3112
2017-09-04T05:34:12.743Z,3132
2017-09-04T05:35:14.628Z,3132
2017-09-04T05:36:16.450Z,3152
2017-09-04T05:37:18.271Z,3172
2017-09-04T05:38:20.156Z,3188
2017-09-04T05:39:22.046Z,3204
2017-09-04T05:40:23.931Z,3220
2017-09-04T05:41:38.084Z,3244
2017-09-04T05:42:39.971Z,3268
2017-09-04T05:43:41.858Z,3288
2017-09-04T05:44:43.742Z,3308
2017-09-04T05:45:45.575Z,3340
2017-09-04T05:46:47.396Z,3376
2017-09-04T05:47:49.279Z,3412
2017-09-04T05:48:51.166Z,3448
2017-09-04T05:49:53.048Z,3476
2017-09-04T05:51:07.205Z,3516
2017-09-04T05:52:09.091Z,3548
2017-09-04T05:53:10.982Z,3600
2017-09-04T05:54:12.868Z,3636
2017-09-04T05:55:14.691Z,3672
2017-09-04T05:56:16.514Z,3700
2017-09-04T05:57:18.398Z,3728
2017-09-04T05:58:20.286Z,3712
2017-09-04T05:59:22.185Z,3668
2017-09-04T06:00:36.344Z,3648
2017-09-04T06:01:38.229Z,3660
2017-09-04T06:02:40.115Z,3688
2017-09-04T06:03:41.997Z,3712
2017-09-04T06:04:43.830Z,3748
2017-09-04T06:05:45.653Z,3792
2017-09-04T06:06:47.534Z,3816
2017-09-04T06:07:49.429Z,3856
2017-09-04T06:08:51.315Z,3872
2017-09-04T06:10:05.470Z,3864
2017-09-04T06:11:07.353Z,3872
2017-09-04T06:12:09.239Z,3924
2017-09-04T06:13:11.121Z,4008
2017-09-04T06:14:12.955Z,4112
2017-09-04T06:15:14.778Z,4236
2017-09-04T06:16:16.660Z,4372
2017-09-04T06:17:18.549Z,4484
2017-09-04T06:18:20.433Z,4536
2017-09-04T06:19:34.588Z,4536
2017-09-04T06:20:36.474Z,4552
2017-09-04T06:21:38.361Z,4584
2017-09-04T06:22:40.241Z,4624
2017-09-04T06:23:42.076Z,4676
2017-09-04T06:24:43.898Z,4740
2017-09-04T06:25:45.784Z,4796
2017-09-04T06:26:47.670Z,4864
2017-09-04T06:27:49.556Z,4924
2017-09-04T06:29:03.714Z,4980
2017-09-04T06:30:05.599Z,5028
2017-09-04T06:31:07.487Z,5044
2017-09-04T06:32:09.370Z,5052
2017-09-04T06:33:11.193Z,5040
2017-09-04T06:34:13.017Z,5032
2017-09-04T06:35:14.906Z,5028
2017-09-04T06:36:16.794Z,5036
2017-09-04T06:37:18.679Z,5068
2017-09-04T06:38:32.837Z,5124
2017-09-04T06:39:34.723Z,5148
2017-09-04T06:40:36.610Z,5156
2017-09-04T06:41:38.494Z,5156
2017-09-04T06:42:40.317Z,5164
2017-09-04T06:43:42.140Z,5176
2017-09-04T06:44:44.025Z,5196
2017-09-04T06:45:45.913Z,5232
2017-09-04T06:46:47.799Z,5272
2017-09-04T06:48:01.958Z,5324
2017-09-04T06:49:03.847Z,5356
2017-09-04T06:50:05.733Z,5356
2017-09-04T06:51:07.619Z,5372
2017-09-04T06:52:09.444Z,5380
2017-09-04T06:53:11.267Z,5408
2017-09-04T06:54:13.151Z,5444
2017-09-04T06:55:15.039Z,5508
2017-09-04T06:56:16.924Z,5556
2017-09-04T06:57:31.080Z,5628
2017-09-04T06:58:32.967Z,5680
2017-09-04T06:59:34.895Z,5704
2017-09-04T07:00:36.746Z,5712
2017-09-04T07:01:38.572Z,5748
2017-09-04T07:02:40.395Z,5772
2017-09-04T07:03:42.280Z,5852
2017-09-04T07:04:44.167Z,5932
2017-09-04T07:05:46.053Z,6008
2017-09-04T07:07:00.209Z,6120
2017-09-04T07:08:02.102Z,6204
2017-09-04T07:09:03.985Z,6240
2017-09-04T07:10:05.868Z,6224
2017-09-04T07:11:07.690Z,6164
2017-09-04T07:12:09.512Z,6132
2017-09-04T07:13:11.403Z,6076
2017-09-04T07:14:13.287Z,6004
2017-09-04T07:15:15.173Z,5928
2017-09-04T07:16:29.342Z,5796
2017-09-04T07:17:31.227Z,5692
2017-09-04T07:18:33.113Z,5576
2017-09-04T07:19:34.994Z,5484
2017-09-04T07:20:36.831Z,5364
2017-09-04T07:21:38.654Z,5244
2017-09-04T07:22:40.540Z,5116
2017-09-04T07:23:42.428Z,4964
2017-09-04T07:24:44.313Z,4840
2017-09-04T07:25:58.477Z,4688
2017-09-04T07:27:00.362Z,4552
2017-09-04T07:28:02.249Z,4448
2017-09-04T07:29:04.130Z,4428
2017-09-04T07:30:05.954Z,4404
2017-09-04T07:31:07.783Z,4428
2017-09-04T07:32:09.665Z,4464
2017-09-04T07:33:11.551Z,4404
2017-09-04T07:34:13.439Z,4376
2017-09-04T07:35:27.598Z,4400
2017-09-04T07:36:29.486Z,4432
2017-09-04T07:37:31.373Z,4456
2017-09-04T07:38:33.258Z,4460
2017-09-04T07:39:35.083Z,4456
2017-09-04T07:40:36.906Z,4456
2017-09-04T07:41:38.790Z,4456
2017-09-04T07:42:40.678Z,4460
2017-09-04T07:43:42.564Z,4432
2017-09-04T07:44:56.727Z,4380
2017-09-04T07:45:58.616Z,4360
2017-09-04T07:47:00.499Z,4352
2017-09-04T07:48:02.382Z,4336
2017-09-04T07:49:04.211Z,4312
2017-09-04T07:50:06.028Z,4280
2017-09-04T07:51:07.875Z,4256
2017-09-04T07:52:09.700Z,4264
2017-09-04T07:53:11.526Z,4260
2017-09-04T07:54:25.685Z,4264
2017-09-04T07:55:27.569Z,4268
2017-09-04T07:56:29.460Z,4280
2017-09-04T07:57:31.343Z,4284
2017-09-04T07:58:33.180Z,4268
2017-09-04T07:59:35.004Z,4260
2017-09-04T08:00:36.887Z,4244
2017-09-04T08:01:38.773Z,4232
2017-09-04T08:02:40.659Z,4228
2017-09-04T08:03:54.865Z,4204
2017-09-04T08:04:56.753Z,4200
2017-09-04T08:05:58.641Z,4216
2017-09-04T08:07:00.528Z,4232
2017-09-04T08:08:02.353Z,4236
2017-09-04T08:09:04.178Z,4228
2017-09-04T08:10:06.061Z,4228
2017-09-04T08:11:07.951Z,4212
2017-09-04T08:12:09.836Z,4168
2017-09-04T08:13:24.044Z,4172
2017-09-04T08:14:25.928Z,4212
2017-09-04T08:15:27.818Z,4184
2017-09-04T08:16:29.700Z,4172
2017-09-04T08:17:31.539Z,4200
2017-09-04T08:18:33.364Z,4200
2017-09-04T08:19:35.249Z,4200
2017-09-04T08:20:37.137Z,4188
2017-09-04T08:21:39.038Z,4180
2017-09-04T08:22:53.192Z,4164
2017-09-04T08:23:55.076Z,4168
2017-09-04T08:24:56.963Z,4240
2017-09-04T08:25:58.846Z,4332
2017-09-04T08:27:00.672Z,4388
2017-09-04T08:28:02.495Z,4460
2017-09-04T08:29:04.379Z,4520
2017-09-04T08:30:06.263Z,4556
2017-09-04T08:31:08.147Z,4612
2017-09-04T08:32:22.306Z,4804
2017-09-04T08:33:24.191Z,5020
2017-09-04T08:34:26.079Z,5240
2017-09-04T08:35:27.961Z,5412
2017-09-04T08:36:29.785Z,5576
2017-09-04T08:37:31.608Z,5856
2017-09-04T08:38:33.492Z,6004
2017-09-04T08:39:35.377Z,6212
2017-09-04T08:40:37.264Z,6440
2017-09-04T08:41:51.428Z,8092
2017-09-04T08:42:53.308Z,9096
2017-09-04T08:43:55.193Z,8736
2017-09-04T08:44:57.076Z,8300
2017-09-04T08:45:58.901Z,8044
2017-09-04T08:47:00.736Z,6944
2017-09-04T08:48:02.631Z,7012
2017-09-04T08:49:04.519Z,7764
2017-09-04T08:50:06.405Z,9256
2017-09-04T08:51:20.565Z,10752
2017-09-04T08:52:22.453Z,10132
2017-09-04T08:53:24.338Z,8576
2017-09-04T08:54:26.223Z,8776
2017-09-04T08:55:28.050Z,7456
2017-09-04T08:56:29.871Z,6868
2017-09-04T08:57:31.755Z,6796
2017-09-04T08:58:33.642Z,8176
2017-09-04T08:59:35.525Z,8500
2017-09-04T09:00:49.686Z,6480
2017-09-04T09:01:51.585Z,6672
2017-09-04T09:02:53.471Z,7344
2017-09-04T09:03:55.355Z,7272
2017-09-04T09:04:57.178Z,6520
2017-09-04T09:05:59.008Z,5948
2017-09-04T09:07:00.892Z,5768
2017-09-04T09:08:02.781Z,5312
2017-09-04T09:09:04.666Z,6060
2017-09-04T09:10:18.835Z,5380
2017-09-04T09:11:20.713Z,5864
2017-09-04T09:12:22.600Z,6708
2017-09-04T09:13:24.484Z,6736
2017-09-04T09:14:26.309Z,6324
2017-09-04T09:15:28.135Z,7112
2017-09-04T09:16:30.023Z,7856
2017-09-04T09:17:31.910Z,7928
2017-09-04T09:18:33.796Z,7756
2017-09-04T09:19:47.958Z,7088
2017-09-04T09:20:49.846Z,6988
2017-09-04T09:21:51.737Z,7136
2017-09-04T09:22:53.624Z,8116
2017-09-04T09:23:55.449Z,9116
2017-09-04T09:24:57.275Z,9732
2017-09-04T09:25:59.160Z,9240
2017-09-04T09:27:01.048Z,10424
2017-09-04T09:28:02.937Z,11584
2017-09-04T09:29:17.100Z,11696
2017-09-04T09:30:18.987Z,11208
2017-09-04T09:31:20.876Z,10568
2017-09-04T09:32:22.760Z,9784
2017-09-04T09:33:24.583Z,9252
2017-09-04T09:34:26.407Z,8632
2017-09-04T09:35:28.291Z,9400
2017-09-04T09:36:30.179Z,10564
2017-09-04T09:37:32.072Z,10884
2017-09-04T09:38:46.228Z,9128
2017-09-04T09:39:48.116Z,9052
2017-09-04T09:40:50.005Z,10232
2017-09-04T09:41:51.892Z,11892
2017-09-04T09:42:53.721Z,13124
2017-09-04T09:43:55.550Z,12944
2017-09-04T09:44:57.441Z,11344
2017-09-04T09:45:59.331Z,10856
2017-09-04T09:47:01.220Z,10428
2017-09-04T09:48:15.379Z,10188
2017-09-04T09:49:17.289Z,9532
2017-09-04T09:50:19.177Z,9364
2017-09-04T09:51:21.072Z,10220
2017-09-04T09:52:22.900Z,9504
2017-09-04T09:53:24.726Z,10044
2017-09-04T09:54:26.615Z,9692
2017-09-04T09:55:28.504Z,8972
2017-09-04T09:56:30.391Z,7620
2017-09-04T09:57:44.555Z,6936
2017-09-04T09:58:46.440Z,6700
2017-09-04T09:59:48.333Z,6932
2017-09-04T10:00:50.216Z,7312
2017-09-04T10:01:52.041Z,8016
2017-09-04T10:02:53.869Z,8892
2017-09-04T10:03:55.756Z,9796
2017-09-04T10:04:57.645Z,10116
2017-09-04T10:05:59.533Z,10512
2017-09-04T10:07:13.698Z,9472
2017-09-04T10:08:15.587Z,9124
2017-09-04T10:09:17.480Z,9380
2017-09-04T10:10:19.366Z,9680
2017-09-04T10:11:21.191Z,9808
2017-09-04T10:12:23.021Z,10296
2017-09-04T10:13:24.911Z,10728
2017-09-04T10:14:26.799Z,10836
2017-09-04T10:15:28.686Z,10452
2017-09-04T10:16:42.846Z,9724
2017-09-04T10:17:44.732Z,9248
2017-09-04T10:18:46.630Z,8664
2017-09-04T10:19:48.527Z,8532
2017-09-04T10:20:50.353Z,8368
2017-09-04T10:21:52.181Z,8244
2017-09-04T10:22:54.066Z,8064
2017-09-04T10:23:55.951Z,7800
2017-09-04T10:24:57.839Z,7724
2017-09-04T10:26:12.001Z,8484
2017-09-04T10:27:13.886Z,9336
2017-09-04T10:28:15.776Z,10396
2017-09-04T10:29:17.662Z,11204
2017-09-04T10:30:19.488Z,11360
2017-09-04T10:31:21.313Z,10504
2017-09-04T10:32:23.208Z,9028
2017-09-04T10:33:25.086Z,7776
2017-09-04T10:34:26.974Z,6768
2017-09-04T10:35:41.142Z,6664
2017-09-04T10:36:43.024Z,7024
2017-09-04T10:37:44.914Z,7864
2017-09-04T10:38:46.797Z,8956
2017-09-04T10:39:48.629Z,10472
2017-09-04T10:40:50.449Z,12092
2017-09-04T10:41:52.336Z,12396
2017-09-04T10:42:54.223Z,11784
2017-09-04T10:43:56.123Z,11540
2017-09-04T10:45:10.285Z,11700
2017-09-04T10:46:12.197Z,11304
2017-09-04T10:47:14.110Z,11540
2017-09-04T10:48:16.002Z,10456
2017-09-04T10:49:17.829Z,9360
2017-09-04T10:50:19.656Z,8052
2017-09-04T10:51:21.542Z,7184
2017-09-04T10:52:23.441Z,7000
2017-09-04T10:53:25.362Z,7220
2017-09-04T10:54:39.569Z,7980
2017-09-04T10:55:41.458Z,8680
2017-09-04T10:56:43.346Z,8484
2017-09-04T10:57:45.230Z,8136
2017-09-04T10:58:47.069Z,8288
2017-09-04T10:59:48.896Z,8360
2017-09-04T11:00:50.781Z,8968
2017-09-04T11:01:52.670Z,8792
2017-09-04T11:02:54.555Z,8408
2017-09-04T11:04:08.713Z,8168
2017-09-04T11:05:10.601Z,7864
2017-09-04T11:06:12.489Z,7520
2017-09-04T11:07:14.374Z,7580
2017-09-04T11:08:16.199Z,7276
2017-09-04T11:09:18.024Z,6684
2017-09-04T11:10:19.908Z,6824
2017-09-04T11:11:21.793Z,7244
2017-09-04T11:12:23.689Z,7520
2017-09-04T11:13:37.862Z,7848
2017-09-04T11:14:39.749Z,7976
2017-09-04T11:15:41.636Z,8492
2017-09-04T11:16:43.519Z,8700
2017-09-04T11:17:45.357Z,8104
2017-09-04T11:18:47.184Z,8132
2017-09-04T11:19:49.081Z,8496
2017-09-04T11:20:50.968Z,8708
2017-09-04T11:21:52.856Z,9232
2017-09-04T11:23:07.018Z,8452
2017-09-04T11:24:08.905Z,8012
2017-09-04T11:25:10.793Z,7672
2017-09-04T11:26:12.676Z,7768
2017-09-04T11:27:14.513Z,8316
2017-09-04T11:28:16.341Z,8112
2017-09-04T11:29:18.226Z,7564
2017-09-04T11:30:20.116Z,7216
2017-09-04T11:31:22.003Z,6876
2017-09-04T11:32:36.165Z,6436
2017-09-04T11:33:38.051Z,6580
2017-09-04T11:34:39.939Z,6604
2017-09-04T11:35:41.824Z,6316
2017-09-04T11:36:43.649Z,6492
2017-09-04T11:37:45.477Z,6680
2017-09-04T11:38:47.364Z,7048
2017-09-04T11:39:49.250Z,7724
2017-09-04T11:40:51.136Z,8100
2017-09-04T11:42:05.297Z,8304
2017-09-04T11:43:07.184Z,9256
2017-09-04T11:44:09.074Z,9832
2017-09-04T11:45:10.959Z,10596
2017-09-04T11:46:12.787Z,10516
2017-09-04T11:47:14.611Z,10788
2017-09-04T11:48:16.499Z,11048
2017-09-04T11:49:18.387Z,9680
2017-09-04T11:50:20.273Z,7536
2017-09-04T11:51:34.435Z,6628
2017-09-04T11:52:36.323Z,6104
2017-09-04T11:53:38.211Z,5968
2017-09-04T11:54:40.098Z,5984
2017-09-04T11:55:41.937Z,6536
2017-09-04T11:56:43.764Z,7492
2017-09-04T11:57:45.651Z,8468
2017-09-04T11:58:47.540Z,8872
2017-09-04T11:59:49.426Z,8920
2017-09-04T12:01:03.589Z,8844
2017-09-04T12:02:05.476Z,9588
2017-09-04T12:03:07.365Z,11092
2017-09-04T12:04:09.248Z,12668
2017-09-04T12:05:11.089Z,13308
2017-09-04T12:06:12.917Z,12596
2017-09-04T12:07:14.804Z,11540
2017-09-04T12:08:16.694Z,9744
2017-09-04T12:09:18.580Z,8976
2017-09-04T12:10:32.780Z,9304
2017-09-04T12:11:34.665Z,9924
2017-09-04T12:12:36.558Z,8792
2017-09-04T12:13:38.442Z,7668
2017-09-04T12:14:40.269Z,7712
2017-09-04T12:15:42.094Z,8172
2017-09-04T12:16:43.981Z,8888
2017-09-04T12:17:45.869Z,9152
2017-09-04T12:18:47.760Z,8480
2017-09-04T12:20:01.923Z,7524
2017-09-04T12:21:03.811Z,7072
2017-09-04T12:22:05.700Z,7004
2017-09-04T12:23:07.590Z,7164
2017-09-04T12:24:09.411Z,7100
2017-09-04T12:25:11.253Z,7072
2017-09-04T12:26:13.139Z,7000
2017-09-04T12:27:15.029Z,7344
2017-09-04T12:28:16.916Z,7216
2017-09-04T12:29:31.079Z,6432
2017-09-04T12:30:32.968Z,5880
2017-09-04T12:31:34.861Z,5608
2017-09-04T12:32:36.746Z,5640
2017-09-04T12:33:38.572Z,6112
2017-09-04T12:34:40.402Z,6420
2017-09-04T12:35:42.313Z,6368
2017-09-04T12:36:44.209Z,6348
2017-09-04T12:37:46.107Z,6468
2017-09-04T12:39:00.268Z,6668
2017-09-04T12:40:02.155Z,6760
2017-09-04T12:41:04.044Z,6824
2017-09-04T12:42:05.928Z,6976
2017-09-04T12:43:07.753Z,7064
2017-09-04T12:44:09.584Z,7160
2017-09-04T12:45:11.469Z,7200
2017-09-04T12:46:13.389Z,7164
2017-09-04T12:47:15.279Z,7244
2017-09-04T12:48:29.452Z,7000
2017-09-04T12:49:31.347Z,6672
2017-09-04T12:50:33.239Z,6592
2017-09-04T12:51:35.150Z,6748
2017-09-04T12:52:36.976Z,6888
2017-09-04T12:53:38.804Z,7124
2017-09-04T12:54:40.692Z,7356
2017-09-04T12:55:42.580Z,7468
2017-09-04T12:56:44.470Z,7084
2017-09-04T12:57:58.639Z,6676
2017-09-04T12:59:00.570Z,6812
2017-09-04T13:00:02.426Z,6944
2017-09-04T13:01:04.317Z,6840
2017-09-04T13:02:06.488Z,6844
2017-09-04T13:03:08.592Z,6712
2017-09-04T13:04:10.446Z,6604
2017-09-04T13:05:12.332Z,6504
2017-09-04T13:06:14.221Z,6372
2017-09-04T13:07:28.387Z,6392
2017-09-04T13:08:30.274Z,6760
2017-09-04T13:09:32.174Z,7256
2017-09-04T13:10:34.070Z,7824
2017-09-04T13:11:35.899Z,8184
2017-09-04T13:12:37.753Z,8112
2017-09-04T13:13:39.612Z,7700
2017-09-04T13:14:41.511Z,7224
2017-09-04T13:15:43.398Z,7168
2017-09-04T13:16:57.563Z,7300
2017-09-04T13:17:59.452Z,7796
2017-09-04T13:19:01.343Z,8076
2017-09-04T13:20:03.243Z,8328
2017-09-04T13:21:05.076Z,8744
2017-09-04T13:22:06.905Z,9024
2017-09-04T13:23:08.793Z,9272
2017-09-04T13:24:10.679Z,9328
2017-09-04T13:25:12.576Z,9404
2017-09-04T13:26:26.744Z,9404
2017-09-04T13:27:28.672Z,9212
2017-09-04T13:28:30.562Z,9104
2017-09-04T13:29:32.449Z,9064
2017-09-04T13:30:34.676Z,8856
2017-09-04T13:31:36.548Z,8644
2017-09-04T13:32:38.435Z,8600
2017-09-04T13:33:40.349Z,8300
2017-09-04T13:34:42.237Z,7920
2017-09-04T13:35:56.413Z,7484
2017-09-04T13:36:58.336Z,6896
2017-09-04T13:38:00.223Z,6460
2017-09-04T13:39:02.106Z,6364
2017-09-04T13:40:03.950Z,6564
2017-09-04T13:41:05.772Z,6716
2017-09-04T13:42:07.969Z,6600
2017-09-04T13:43:09.844Z,6496
2017-09-04T13:44:11.753Z,6744
2017-09-04T13:45:25.917Z,7040
2017-09-04T13:46:27.806Z,7272
2017-09-04T13:47:29.696Z,7568
2017-09-04T13:48:31.582Z,7600
2017-09-04T13:49:33.783Z,7716
2017-09-04T13:50:35.609Z,7792
2017-09-04T13:51:37.840Z,7500
2017-09-04T13:52:39.778Z,7156
2017-09-04T13:53:41.667Z,6936
2017-09-04T13:54:55.831Z,6608
2017-09-04T13:55:57.719Z,6332
2017-09-04T13:56:59.608Z,6224
2017-09-04T13:58:01.499Z,6152
2017-09-04T13:59:03.331Z,6140
2017-09-04T14:00:05.173Z,6172
2017-09-04T14:01:07.059Z,6116
2017-09-04T14:02:08.948Z,5924
2017-09-04T14:03:10.841Z,5644
2017-09-04T14:04:25.000Z,5612
2017-09-04T14:05:26.907Z,5824
2017-09-04T14:06:28.797Z,6136
2017-09-04T14:07:30.682Z,6168
2017-09-04T14:08:32.506Z,5876
2017-09-04T14:09:34.336Z,5768
2017-09-04T14:10:36.227Z,5864
2017-09-04T14:11:38.116Z,5956
2017-09-04T14:12:40.007Z,5932
2017-09-04T14:13:54.169Z,6044
2017-09-04T14:14:56.055Z,6028
2017-09-04T14:15:57.948Z,6060
2017-09-04T14:16:59.830Z,6212
2017-09-04T14:18:01.672Z,6308
2017-09-04T14:19:03.498Z,6364
2017-09-04T14:20:05.385Z,6328
2017-09-04T14:21:07.274Z,6328
2017-09-04T14:22:09.162Z,6444
2017-09-04T14:23:23.336Z,6596
2017-09-04T14:24:25.287Z,6716
2017-09-04T14:25:27.147Z,6828